sensor_id;sensor_type;location;lat;lon;timestamp;P1;durP1;ratioP1;P2;durP2;ratioP2
4144;SDS011;2086;51.050;6.982;2022-07-06T00:01:15;1.03;;;1.00;;
4144;SDS011;2086;51.050;6.982;2022-07-06T00:03:41;1.67;;;0.73;;
4144;SDS011;2086;51.050;6.982;2022-07-06T00:06:06;1.20;;;1.10;;
4144;SDS011;2086;51.050;6.982;2022-07-06T00:08:32;1.20;;;1.20;;
4144;SDS011;2086;51.050;6.982;2022-07-06T00:10:57;1.10;;;1.03;;
4144;SDS011;2086;51.050;6.982;2022-07-06T00:13:22;0.70;;;0.60;;
4144;SDS011;2086;51.050;6.982;2022-07-06T00:15:47;1.03;;;1.03;;
4144;SDS011;2086;51.050;6.982;2022-07-06T00:18:13;1.07;;;1.00;;
4144;SDS011;2086;51.050;6.982;2022-07-06T00:20:38;3.30;;;0.87;;
4144;SDS011;2086;51.050;6.982;2022-07-06T00:23:03;1.20;;;0.70;;
4144;SDS011;2086;51.050;6.982;2022-07-06T00:25:28;3.37;;;0.83;;
4144;SDS011;2086;51.050;6.982;2022-07-06T00:27:54;0.70;;;0.70;;
4144;SDS011;2086;51.050;6.982;2022-07-06T00:30:19;2.40;;;1.20;;
4144;SDS011;2086;51.050;6.982;2022-07-06T00:32:44;1.20;;;1.10;;
4144;SDS011;2086;51.050;6.982;2022-07-06T00:35:09;1.33;;;1.23;;
4144;SDS011;2086;51.050;6.982;2022-07-06T00:37:34;1.03;;;1.03;;
4144;SDS011;2086;51.050;6.982;2022-07-06T00:40:00;1.67;;;1.57;;
4144;SDS011;2086;51.050;6.982;2022-07-06T00:42:25;1.17;;;1.00;;
4144;SDS011;2086;51.050;6.982;2022-07-06T00:44:50;1.03;;;1.03;;
4144;SDS011;2086;51.050;6.982;2022-07-06T00:47:15;1.00;;;0.90;;
4144;SDS011;2086;51.050;6.982;2022-07-06T00:49:41;1.27;;;1.17;;
4144;SDS011;2086;51.050;6.982;2022-07-06T00:52:24;3.40;;;1.37;;
4144;SDS011;2086;51.050;6.982;2022-07-06T00:54:50;0.60;;;0.60;;
4144;SDS011;2086;51.050;6.982;2022-07-06T00:57:15;0.87;;;0.80;;
4144;SDS011;2086;51.050;6.982;2022-07-06T00:59:40;0.83;;;0.83;;
4144;SDS011;2086;51.050;6.982;2022-07-06T01:02:06;0.87;;;0.80;;
4144;SDS011;2086;51.050;6.982;2022-07-06T01:04:31;1.30;;;0.70;;
4144;SDS011;2086;51.050;6.982;2022-07-06T01:06:56;1.30;;;1.20;;
4144;SDS011;2086;51.050;6.982;2022-07-06T01:09:22;1.00;;;0.90;;
4144;SDS011;2086;51.050;6.982;2022-07-06T01:11:47;0.90;;;0.70;;
4144;SDS011;2086;51.050;6.982;2022-07-06T01:14:13;2.30;;;0.90;;
4144;SDS011;2086;51.050;6.982;2022-07-06T01:16:38;0.90;;;0.90;;
4144;SDS011;2086;51.050;6.982;2022-07-06T01:19:04;0.90;;;0.90;;
4144;SDS011;2086;51.050;6.982;2022-07-06T01:21:29;0.60;;;0.60;;
4144;SDS011;2086;51.050;6.982;2022-07-06T01:23:54;1.27;;;1.10;;
4144;SDS011;2086;51.050;6.982;2022-07-06T01:26:20;0.77;;;0.77;;
4144;SDS011;2086;51.050;6.982;2022-07-06T01:28:49;0.80;;;0.80;;
4144;SDS011;2086;51.050;6.982;2022-07-06T01:31:19;1.70;;;1.20;;
4144;SDS011;2086;51.050;6.982;2022-07-06T01:33:45;1.30;;;1.20;;
4144;SDS011;2086;51.050;6.982;2022-07-06T01:36:10;0.60;;;0.60;;
4144;SDS011;2086;51.050;6.982;2022-07-06T01:38:45;0.77;;;0.77;;
4144;SDS011;2086;51.050;6.982;2022-07-06T01:41:11;1.30;;;1.00;;
4144;SDS011;2086;51.050;6.982;2022-07-06T01:43:37;1.87;;;1.00;;
4144;SDS011;2086;51.050;6.982;2022-07-06T01:46:02;0.70;;;0.57;;
4144;SDS011;2086;51.050;6.982;2022-07-06T01:48:27;0.83;;;0.83;;
4144;SDS011;2086;51.050;6.982;2022-07-06T01:50:52;1.23;;;1.17;;
4144;SDS011;2086;51.050;6.982;2022-07-06T01:53:17;1.13;;;1.03;;
4144;SDS011;2086;51.050;6.982;2022-07-06T01:55:43;0.80;;;0.80;;
4144;SDS011;2086;51.050;6.982;2022-07-06T01:58:08;0.80;;;0.80;;
4144;SDS011;2086;51.050;6.982;2022-07-06T02:00:33;4.07;;;1.50;;
4144;SDS011;2086;51.050;6.982;2022-07-06T02:02:58;1.00;;;0.90;;
4144;SDS011;2086;51.050;6.982;2022-07-06T02:05:24;0.60;;;0.50;;
4144;SDS011;2086;51.050;6.982;2022-07-06T02:07:49;1.20;;;1.10;;
4144;SDS011;2086;51.050;6.982;2022-07-06T02:10:14;2.43;;;1.33;;
4144;SDS011;2086;51.050;6.982;2022-07-06T02:12:39;0.83;;;0.83;;
4144;SDS011;2086;51.050;6.982;2022-07-06T02:15:05;0.77;;;0.60;;
4144;SDS011;2086;51.050;6.982;2022-07-06T02:17:30;0.77;;;0.77;;
4144;SDS011;2086;51.050;6.982;2022-07-06T02:19:55;0.90;;;0.90;;
4144;SDS011;2086;51.050;6.982;2022-07-06T02:22:21;0.97;;;0.97;;
4144;SDS011;2086;51.050;6.982;2022-07-06T02:24:46;1.57;;;1.10;;
4144;SDS011;2086;51.050;6.982;2022-07-06T02:27:11;0.90;;;0.90;;
4144;SDS011;2086;51.050;6.982;2022-07-06T02:29:36;0.97;;;0.97;;
4144;SDS011;2086;51.050;6.982;2022-07-06T02:32:02;1.40;;;1.30;;
4144;SDS011;2086;51.050;6.982;2022-07-06T02:34:27;1.10;;;1.10;;
4144;SDS011;2086;51.050;6.982;2022-07-06T02:36:52;1.10;;;1.10;;
4144;SDS011;2086;51.050;6.982;2022-07-06T02:39:17;1.93;;;1.30;;
4144;SDS011;2086;51.050;6.982;2022-07-06T02:41:43;1.17;;;1.07;;
4144;SDS011;2086;51.050;6.982;2022-07-06T02:44:08;1.10;;;1.03;;
4144;SDS011;2086;51.050;6.982;2022-07-06T02:46:33;1.33;;;1.00;;
4144;SDS011;2086;51.050;6.982;2022-07-06T02:48:58;1.00;;;0.80;;
4144;SDS011;2086;51.050;6.982;2022-07-06T02:51:24;1.83;;;1.00;;
4144;SDS011;2086;51.050;6.982;2022-07-06T02:53:49;0.70;;;0.60;;
4144;SDS011;2086;51.050;6.982;2022-07-06T02:56:14;1.47;;;1.37;;
4144;SDS011;2086;51.050;6.982;2022-07-06T02:58:39;1.93;;;0.90;;
4144;SDS011;2086;51.050;6.982;2022-07-06T03:01:04;3.93;;;1.40;;
4144;SDS011;2086;51.050;6.982;2022-07-06T03:03:30;2.00;;;1.90;;
4144;SDS011;2086;51.050;6.982;2022-07-06T03:05:55;1.07;;;1.00;;
4144;SDS011;2086;51.050;6.982;2022-07-06T03:08:20;1.07;;;1.00;;
4144;SDS011;2086;51.050;6.982;2022-07-06T03:10:45;3.17;;;1.63;;
4144;SDS011;2086;51.050;6.982;2022-07-06T03:13:11;1.20;;;1.20;;
4144;SDS011;2086;51.050;6.982;2022-07-06T03:15:36;1.47;;;1.10;;
4144;SDS011;2086;51.050;6.982;2022-07-06T03:18:01;0.90;;;0.90;;
4144;SDS011;2086;51.050;6.982;2022-07-06T03:20:26;1.10;;;1.10;;
4144;SDS011;2086;51.050;6.982;2022-07-06T03:22:52;1.10;;;1.00;;
4144;SDS011;2086;51.050;6.982;2022-07-06T03:25:17;1.00;;;0.90;;
4144;SDS011;2086;51.050;6.982;2022-07-06T03:27:42;1.10;;;1.03;;
4144;SDS011;2086;51.050;6.982;2022-07-06T03:30:07;1.97;;;0.90;;
4144;SDS011;2086;51.050;6.982;2022-07-06T03:32:33;1.70;;;1.60;;
4144;SDS011;2086;51.050;6.982;2022-07-06T03:34:58;0.90;;;0.90;;
4144;SDS011;2086;51.050;6.982;2022-07-06T03:37:23;1.10;;;0.90;;
4144;SDS011;2086;51.050;6.982;2022-07-06T03:39:48;1.20;;;1.10;;
4144;SDS011;2086;51.050;6.982;2022-07-06T03:42:14;1.17;;;1.17;;
4144;SDS011;2086;51.050;6.982;2022-07-06T03:44:39;1.10;;;1.10;;
4144;SDS011;2086;51.050;6.982;2022-07-06T03:47:04;1.50;;;1.33;;
4144;SDS011;2086;51.050;6.982;2022-07-06T03:49:29;0.90;;;0.90;;
4144;SDS011;2086;51.050;6.982;2022-07-06T03:51:55;2.80;;;1.30;;
4144;SDS011;2086;51.050;6.982;2022-07-06T03:54:20;3.30;;;1.30;;
4144;SDS011;2086;51.050;6.982;2022-07-06T03:56:45;1.60;;;1.53;;
4144;SDS011;2086;51.050;6.982;2022-07-06T03:59:10;1.57;;;1.47;;
4144;SDS011;2086;51.050;6.982;2022-07-06T04:01:36;0.87;;;0.87;;
4144;SDS011;2086;51.050;6.982;2022-07-06T04:04:01;0.97;;;0.97;;
4144;SDS011;2086;51.050;6.982;2022-07-06T04:06:26;1.57;;;1.47;;
4144;SDS011;2086;51.050;6.982;2022-07-06T04:08:51;4.13;;;1.07;;
4144;SDS011;2086;51.050;6.982;2022-07-06T04:11:17;1.30;;;1.23;;
4144;SDS011;2086;51.050;6.982;2022-07-06T04:13:42;1.70;;;1.60;;
4144;SDS011;2086;51.050;6.982;2022-07-06T04:16:07;2.33;;;1.83;;
4144;SDS011;2086;51.050;6.982;2022-07-06T04:18:33;0.90;;;0.90;;
4144;SDS011;2086;51.050;6.982;2022-07-06T04:20:58;2.50;;;2.00;;
4144;SDS011;2086;51.050;6.982;2022-07-06T04:23:23;10.70;;;1.30;;
4144;SDS011;2086;51.050;6.982;2022-07-06T04:25:49;1.47;;;1.47;;
4144;SDS011;2086;51.050;6.982;2022-07-06T04:28:14;4.67;;;1.00;;
4144;SDS011;2086;51.050;6.982;2022-07-06T04:30:39;0.90;;;0.90;;
4144;SDS011;2086;51.050;6.982;2022-07-06T04:33:04;1.40;;;1.30;;
4144;SDS011;2086;51.050;6.982;2022-07-06T04:35:30;1.60;;;1.33;;
4144;SDS011;2086;51.050;6.982;2022-07-06T04:37:55;2.63;;;1.80;;
4144;SDS011;2086;51.050;6.982;2022-07-06T04:40:20;1.50;;;1.40;;
4144;SDS011;2086;51.050;6.982;2022-07-06T04:42:45;10.90;;;1.07;;
4144;SDS011;2086;51.050;6.982;2022-07-06T04:45:11;2.13;;;1.87;;
4144;SDS011;2086;51.050;6.982;2022-07-06T04:47:36;2.67;;;1.67;;
4144;SDS011;2086;51.050;6.982;2022-07-06T04:50:02;2.33;;;1.10;;
4144;SDS011;2086;51.050;6.982;2022-07-06T04:52:27;2.00;;;1.03;;
4144;SDS011;2086;51.050;6.982;2022-07-06T04:54:53;1.63;;;1.50;;
4144;SDS011;2086;51.050;6.982;2022-07-06T04:57:19;1.70;;;1.60;;
4144;SDS011;2086;51.050;6.982;2022-07-06T04:59:44;1.40;;;1.07;;
4144;SDS011;2086;51.050;6.982;2022-07-06T05:02:09;1.50;;;1.17;;
4144;SDS011;2086;51.050;6.982;2022-07-06T05:04:34;1.90;;;1.20;;
4144;SDS011;2086;51.050;6.982;2022-07-06T05:07:00;1.87;;;1.77;;
4144;SDS011;2086;51.050;6.982;2022-07-06T05:09:25;5.93;;;2.23;;
4144;SDS011;2086;51.050;6.982;2022-07-06T05:11:50;2.10;;;1.03;;
4144;SDS011;2086;51.050;6.982;2022-07-06T05:14:15;5.73;;;1.70;;
4144;SDS011;2086;51.050;6.982;2022-07-06T05:21:43;1.80;;;1.30;;
4144;SDS011;2086;51.050;6.982;2022-07-06T05:24:08;6.43;;;1.10;;
4144;SDS011;2086;51.050;6.982;2022-07-06T05:26:34;1.93;;;1.67;;
4144;SDS011;2086;51.050;6.982;2022-07-06T05:28:59;1.63;;;1.53;;
4144;SDS011;2086;51.050;6.982;2022-07-06T05:31:24;1.37;;;1.27;;
4144;SDS011;2086;51.050;6.982;2022-07-06T05:33:50;1.50;;;1.40;;
4144;SDS011;2086;51.050;6.982;2022-07-06T05:36:15;4.13;;;1.87;;
4144;SDS011;2086;51.050;6.982;2022-07-06T05:38:40;2.03;;;1.90;;
4144;SDS011;2086;51.050;6.982;2022-07-06T05:41:06;2.30;;;1.10;;
4144;SDS011;2086;51.050;6.982;2022-07-06T05:43:31;1.80;;;1.40;;
4144;SDS011;2086;51.050;6.982;2022-07-06T05:45:56;1.67;;;1.53;;
4144;SDS011;2086;51.050;6.982;2022-07-06T05:48:21;5.90;;;1.57;;
4144;SDS011;2086;51.050;6.982;2022-07-06T05:51:05;2.03;;;1.93;;
4144;SDS011;2086;51.050;6.982;2022-07-06T05:53:31;4.90;;;1.60;;
4144;SDS011;2086;51.050;6.982;2022-07-06T05:55:56;1.47;;;1.37;;
4144;SDS011;2086;51.050;6.982;2022-07-06T05:58:21;9.33;;;1.50;;
4144;SDS011;2086;51.050;6.982;2022-07-06T06:00:46;4.37;;;1.57;;
4144;SDS011;2086;51.050;6.982;2022-07-06T06:03:12;4.00;;;1.33;;
4144;SDS011;2086;51.050;6.982;2022-07-06T06:05:37;5.90;;;1.63;;
4144;SDS011;2086;51.050;6.982;2022-07-06T06:08:02;2.50;;;1.77;;
4144;SDS011;2086;51.050;6.982;2022-07-06T06:10:28;3.80;;;1.33;;
4144;SDS011;2086;51.050;6.982;2022-07-06T06:12:53;3.00;;;1.50;;
4144;SDS011;2086;51.050;6.982;2022-07-06T06:15:19;1.83;;;1.40;;
4144;SDS011;2086;51.050;6.982;2022-07-06T06:17:44;2.60;;;1.60;;
4144;SDS011;2086;51.050;6.982;2022-07-06T06:20:10;2.23;;;1.90;;
4144;SDS011;2086;51.050;6.982;2022-07-06T06:22:55;1.47;;;0.90;;
4144;SDS011;2086;51.050;6.982;2022-07-06T06:25:29;2.07;;;1.37;;
4144;SDS011;2086;51.050;6.982;2022-07-06T06:27:55;7.00;;;1.20;;
4144;SDS011;2086;51.050;6.982;2022-07-06T06:30:20;2.13;;;1.27;;
4144;SDS011;2086;51.050;6.982;2022-07-06T06:32:45;1.97;;;1.47;;
4144;SDS011;2086;51.050;6.982;2022-07-06T06:35:10;1.00;;;1.00;;
4144;SDS011;2086;51.050;6.982;2022-07-06T06:37:36;1.20;;;0.80;;
4144;SDS011;2086;51.050;6.982;2022-07-06T06:40:02;1.17;;;1.10;;
4144;SDS011;2086;51.050;6.982;2022-07-06T06:42:27;2.60;;;1.20;;
4144;SDS011;2086;51.050;6.982;2022-07-06T06:44:52;1.37;;;1.10;;
4144;SDS011;2086;51.050;6.982;2022-07-06T06:47:18;10.10;;;1.90;;
4144;SDS011;2086;51.050;6.982;2022-07-06T06:49:44;2.90;;;1.20;;
4144;SDS011;2086;51.050;6.982;2022-07-06T06:52:10;1.03;;;0.93;;
4144;SDS011;2086;51.050;6.982;2022-07-06T06:54:35;1.10;;;1.00;;
4144;SDS011;2086;51.050;6.982;2022-07-06T06:57:00;0.70;;;0.67;;
4144;SDS011;2086;51.050;6.982;2022-07-06T06:59:25;1.07;;;0.87;;
4144;SDS011;2086;51.050;6.982;2022-07-06T07:01:51;2.03;;;1.00;;
4144;SDS011;2086;51.050;6.982;2022-07-06T07:04:16;1.03;;;1.03;;
4144;SDS011;2086;51.050;6.982;2022-07-06T07:06:42;0.67;;;0.67;;
4144;SDS011;2086;51.050;6.982;2022-07-06T07:09:07;1.50;;;0.83;;
4144;SDS011;2086;51.050;6.982;2022-07-06T07:11:33;1.00;;;1.00;;
4144;SDS011;2086;51.050;6.982;2022-07-06T07:13:58;0.80;;;0.80;;
4144;SDS011;2086;51.050;6.982;2022-07-06T07:16:25;0.90;;;0.90;;
4144;SDS011;2086;51.050;6.982;2022-07-06T07:18:50;0.70;;;0.70;;
4144;SDS011;2086;51.050;6.982;2022-07-06T07:21:16;6.93;;;0.70;;
4144;SDS011;2086;51.050;6.982;2022-07-06T07:23:41;0.93;;;0.70;;
4144;SDS011;2086;51.050;6.982;2022-07-06T07:26:06;0.70;;;0.70;;
4144;SDS011;2086;51.050;6.982;2022-07-06T07:28:32;0.80;;;0.73;;
4144;SDS011;2086;51.050;6.982;2022-07-06T07:30:57;0.70;;;0.50;;
4144;SDS011;2086;51.050;6.982;2022-07-06T07:33:22;5.00;;;1.07;;
4144;SDS011;2086;51.050;6.982;2022-07-06T07:35:47;1.67;;;0.73;;
4144;SDS011;2086;51.050;6.982;2022-07-06T07:38:13;1.13;;;0.63;;
4144;SDS011;2086;51.050;6.982;2022-07-06T07:40:38;2.70;;;0.60;;
4144;SDS011;2086;51.050;6.982;2022-07-06T07:43:03;0.60;;;0.50;;
4144;SDS011;2086;51.050;6.982;2022-07-06T07:45:28;1.00;;;0.67;;
4144;SDS011;2086;51.050;6.982;2022-07-06T07:47:54;0.70;;;0.70;;
4144;SDS011;2086;51.050;6.982;2022-07-06T07:50:19;0.80;;;0.80;;
4144;SDS011;2086;51.050;6.982;2022-07-06T07:52:44;1.27;;;0.73;;
4144;SDS011;2086;51.050;6.982;2022-07-06T07:55:10;1.30;;;1.20;;
4144;SDS011;2086;51.050;6.982;2022-07-06T07:57:35;1.37;;;0.90;;
4144;SDS011;2086;51.050;6.982;2022-07-06T08:00:00;2.07;;;1.13;;
4144;SDS011;2086;51.050;6.982;2022-07-06T08:02:26;1.00;;;1.00;;
4144;SDS011;2086;51.050;6.982;2022-07-06T08:04:52;0.80;;;0.73;;
4144;SDS011;2086;51.050;6.982;2022-07-06T08:07:17;0.80;;;0.70;;
4144;SDS011;2086;51.050;6.982;2022-07-06T08:09:42;10.63;;;0.73;;
4144;SDS011;2086;51.050;6.982;2022-07-06T08:12:07;1.17;;;1.07;;
4144;SDS011;2086;51.050;6.982;2022-07-06T08:14:33;1.63;;;0.93;;
4144;SDS011;2086;51.050;6.982;2022-07-06T08:16:59;1.00;;;0.70;;
4144;SDS011;2086;51.050;6.982;2022-07-06T08:19:24;0.93;;;0.70;;
4144;SDS011;2086;51.050;6.982;2022-07-06T08:21:49;1.43;;;0.60;;
4144;SDS011;2086;51.050;6.982;2022-07-06T08:24:15;0.77;;;0.77;;
4144;SDS011;2086;51.050;6.982;2022-07-06T08:26:40;0.73;;;0.73;;
4144;SDS011;2086;51.050;6.982;2022-07-06T08:29:06;0.70;;;0.50;;
4144;SDS011;2086;51.050;6.982;2022-07-06T08:31:31;0.60;;;0.60;;
4144;SDS011;2086;51.050;6.982;2022-07-06T08:33:59;0.50;;;0.40;;
4144;SDS011;2086;51.050;6.982;2022-07-06T08:36:24;0.70;;;0.60;;
4144;SDS011;2086;51.050;6.982;2022-07-06T08:38:49;0.50;;;0.50;;
4144;SDS011;2086;51.050;6.982;2022-07-06T08:41:15;2.10;;;0.70;;
4144;SDS011;2086;51.050;6.982;2022-07-06T08:43:41;1.00;;;0.63;;
4144;SDS011;2086;51.050;6.982;2022-07-06T08:46:06;0.60;;;0.50;;
4144;SDS011;2086;51.050;6.982;2022-07-06T08:48:33;0.50;;;0.40;;
4144;SDS011;2086;51.050;6.982;2022-07-06T08:51:00;2.40;;;0.50;;
4144;SDS011;2086;51.050;6.982;2022-07-06T08:53:25;2.30;;;0.50;;
4144;SDS011;2086;51.050;6.982;2022-07-06T08:55:50;0.50;;;0.40;;
4144;SDS011;2086;51.050;6.982;2022-07-06T08:58:16;1.43;;;0.60;;
4144;SDS011;2086;51.050;6.982;2022-07-06T09:00:41;0.80;;;0.40;;
4144;SDS011;2086;51.050;6.982;2022-07-06T09:03:07;0.80;;;0.80;;
4144;SDS011;2086;51.050;6.982;2022-07-06T09:05:32;0.60;;;0.50;;
4144;SDS011;2086;51.050;6.982;2022-07-06T09:07:59;0.80;;;0.77;;
4144;SDS011;2086;51.050;6.982;2022-07-06T09:10:25;0.80;;;0.50;;
4144;SDS011;2086;51.050;6.982;2022-07-06T09:12:51;0.63;;;0.50;;
4144;SDS011;2086;51.050;6.982;2022-07-06T09:15:16;0.93;;;0.60;;
4144;SDS011;2086;51.050;6.982;2022-07-06T09:17:42;3.23;;;0.50;;
4144;SDS011;2086;51.050;6.982;2022-07-06T09:20:08;1.07;;;0.47;;
4144;SDS011;2086;51.050;6.982;2022-07-06T09:22:34;0.53;;;0.50;;
4144;SDS011;2086;51.050;6.982;2022-07-06T09:27:28;1.10;;;0.50;;
4144;SDS011;2086;51.050;6.982;2022-07-06T09:29:53;1.00;;;0.70;;
4144;SDS011;2086;51.050;6.982;2022-07-06T09:32:22;0.57;;;0.50;;
4144;SDS011;2086;51.050;6.982;2022-07-06T09:34:47;0.57;;;0.50;;
4144;SDS011;2086;51.050;6.982;2022-07-06T09:37:13;1.10;;;0.47;;
4144;SDS011;2086;51.050;6.982;2022-07-06T09:39:38;4.83;;;0.90;;
4144;SDS011;2086;51.050;6.982;2022-07-06T09:42:04;0.50;;;0.40;;
4144;SDS011;2086;51.050;6.982;2022-07-06T09:44:30;0.97;;;0.40;;
4144;SDS011;2086;51.050;6.982;2022-07-06T09:46:57;0.50;;;0.40;;
4144;SDS011;2086;51.050;6.982;2022-07-06T09:49:23;0.50;;;0.40;;
4144;SDS011;2086;51.050;6.982;2022-07-06T09:51:49;0.60;;;0.50;;
4144;SDS011;2086;51.050;6.982;2022-07-06T09:54:15;4.10;;;0.53;;
4144;SDS011;2086;51.050;6.982;2022-07-06T09:56:42;0.50;;;0.40;;
4144;SDS011;2086;51.050;6.982;2022-07-06T09:59:15;0.60;;;0.60;;
4144;SDS011;2086;51.050;6.982;2022-07-06T10:01:41;0.77;;;0.60;;
4144;SDS011;2086;51.050;6.982;2022-07-06T10:04:07;0.60;;;0.50;;
4144;SDS011;2086;51.050;6.982;2022-07-06T10:06:33;0.50;;;0.50;;
4144;SDS011;2086;51.050;6.982;2022-07-06T10:08:58;1.27;;;0.60;;
4144;SDS011;2086;51.050;6.982;2022-07-06T10:11:24;0.83;;;0.83;;
4144;SDS011;2086;51.050;6.982;2022-07-06T10:13:50;0.60;;;0.60;;
4144;SDS011;2086;51.050;6.982;2022-07-06T10:16:19;0.93;;;0.60;;
4144;SDS011;2086;51.050;6.982;2022-07-06T10:18:45;0.50;;;0.50;;
4144;SDS011;2086;51.050;6.982;2022-07-06T10:21:10;0.63;;;0.50;;
4144;SDS011;2086;51.050;6.982;2022-07-06T10:23:36;1.10;;;0.40;;
4144;SDS011;2086;51.050;6.982;2022-07-06T10:26:01;1.20;;;0.83;;
4144;SDS011;2086;51.050;6.982;2022-07-06T10:28:26;0.50;;;0.40;;
4144;SDS011;2086;51.050;6.982;2022-07-06T10:30:52;0.53;;;0.50;;
4144;SDS011;2086;51.050;6.982;2022-07-06T10:33:17;1.90;;;0.50;;
4144;SDS011;2086;51.050;6.982;2022-07-06T10:35:43;0.60;;;0.40;;
4144;SDS011;2086;51.050;6.982;2022-07-06T10:38:09;0.50;;;0.47;;
4144;SDS011;2086;51.050;6.982;2022-07-06T10:40:36;0.83;;;0.50;;
4144;SDS011;2086;51.050;6.982;2022-07-06T10:43:20;1.90;;;0.50;;
4144;SDS011;2086;51.050;6.982;2022-07-06T10:50:36;0.80;;;0.50;;
4144;SDS011;2086;51.050;6.982;2022-07-06T10:53:01;0.40;;;0.40;;
4144;SDS011;2086;51.050;6.982;2022-07-06T10:55:34;3.90;;;0.47;;
4144;SDS011;2086;51.050;6.982;2022-07-06T10:58:00;0.50;;;0.50;;
4144;SDS011;2086;51.050;6.982;2022-07-06T11:00:26;0.50;;;0.40;;
4144;SDS011;2086;51.050;6.982;2022-07-06T11:02:51;1.60;;;0.60;;
4144;SDS011;2086;51.050;6.982;2022-07-06T11:08:00;0.40;;;0.40;;
4144;SDS011;2086;51.050;6.982;2022-07-06T11:10:26;1.53;;;0.50;;
4144;SDS011;2086;51.050;6.982;2022-07-06T11:12:58;2.00;;;0.60;;
4144;SDS011;2086;51.050;6.982;2022-07-06T11:16:05;1.50;;;0.70;;
4144;SDS011;2086;51.050;6.982;2022-07-06T11:18:12;0.50;;;0.40;;
4144;SDS011;2086;51.050;6.982;2022-07-06T11:20:37;2.40;;;0.63;;
4144;SDS011;2086;51.050;6.982;2022-07-06T11:23:03;0.47;;;0.40;;
4144;SDS011;2086;51.050;6.982;2022-07-06T11:25:28;0.80;;;0.73;;
4144;SDS011;2086;51.050;6.982;2022-07-06T11:27:53;0.50;;;0.50;;
4144;SDS011;2086;51.050;6.982;2022-07-06T11:30:20;0.60;;;0.53;;
4144;SDS011;2086;51.050;6.982;2022-07-06T11:32:45;1.17;;;0.40;;
4144;SDS011;2086;51.050;6.982;2022-07-06T11:35:10;1.23;;;0.40;;
4144;SDS011;2086;51.050;6.982;2022-07-06T11:37:36;0.90;;;0.50;;
4144;SDS011;2086;51.050;6.982;2022-07-06T11:40:06;1.13;;;0.60;;
4144;SDS011;2086;51.050;6.982;2022-07-06T11:42:31;0.50;;;0.50;;
4144;SDS011;2086;51.050;6.982;2022-07-06T11:44:56;1.43;;;1.33;;
4144;SDS011;2086;51.050;6.982;2022-07-06T11:47:29;0.40;;;0.37;;
4144;SDS011;2086;51.050;6.982;2022-07-06T11:49:55;0.40;;;0.37;;
4144;SDS011;2086;51.050;6.982;2022-07-06T11:52:20;0.80;;;0.50;;
4144;SDS011;2086;51.050;6.982;2022-07-06T11:54:48;0.50;;;0.40;;
4144;SDS011;2086;51.050;6.982;2022-07-06T11:57:13;0.57;;;0.57;;
4144;SDS011;2086;51.050;6.982;2022-07-06T11:59:39;0.50;;;0.40;;
4144;SDS011;2086;51.050;6.982;2022-07-06T12:02:06;0.67;;;0.63;;
4144;SDS011;2086;51.050;6.982;2022-07-06T12:04:32;0.87;;;0.33;;
4144;SDS011;2086;51.050;6.982;2022-07-06T12:06:59;0.50;;;0.40;;
4144;SDS011;2086;51.050;6.982;2022-07-06T12:09:24;0.60;;;0.50;;
4144;SDS011;2086;51.050;6.982;2022-07-06T12:11:50;1.17;;;0.50;;
4144;SDS011;2086;51.050;6.982;2022-07-06T12:14:19;0.50;;;0.40;;
4144;SDS011;2086;51.050;6.982;2022-07-06T12:16:45;0.50;;;0.40;;
4144;SDS011;2086;51.050;6.982;2022-07-06T12:19:11;0.50;;;0.40;;
4144;SDS011;2086;51.050;6.982;2022-07-06T12:21:42;0.50;;;0.40;;
4144;SDS011;2086;51.050;6.982;2022-07-06T12:24:07;2.50;;;0.60;;
4144;SDS011;2086;51.050;6.982;2022-07-06T12:26:38;0.50;;;0.40;;
4144;SDS011;2086;51.050;6.982;2022-07-06T12:29:08;1.20;;;0.50;;
4144;SDS011;2086;51.050;6.982;2022-07-06T12:31:38;0.50;;;0.50;;
4144;SDS011;2086;51.050;6.982;2022-07-06T12:34:04;0.60;;;0.40;;
4144;SDS011;2086;51.050;6.982;2022-07-06T12:36:30;0.40;;;0.40;;
4144;SDS011;2086;51.050;6.982;2022-07-06T12:38:55;0.57;;;0.40;;
4144;SDS011;2086;51.050;6.982;2022-07-06T12:41:25;0.93;;;0.50;;
4144;SDS011;2086;51.050;6.982;2022-07-06T12:43:59;0.80;;;0.50;;
4144;SDS011;2086;51.050;6.982;2022-07-06T12:46:32;0.67;;;0.40;;
4144;SDS011;2086;51.050;6.982;2022-07-06T12:48:58;0.50;;;0.40;;
4144;SDS011;2086;51.050;6.982;2022-07-06T12:51:24;0.50;;;0.50;;
4144;SDS011;2086;51.050;6.982;2022-07-06T12:53:49;0.90;;;0.43;;
4144;SDS011;2086;51.050;6.982;2022-07-06T12:56:14;1.03;;;0.60;;
4144;SDS011;2086;51.050;6.982;2022-07-06T12:58:54;0.60;;;0.50;;
4144;SDS011;2086;51.050;6.982;2022-07-06T13:01:19;0.50;;;0.50;;
4144;SDS011;2086;51.050;6.982;2022-07-06T13:03:44;0.50;;;0.40;;
4144;SDS011;2086;51.050;6.982;2022-07-06T13:06:10;0.90;;;0.60;;
4144;SDS011;2086;51.050;6.982;2022-07-06T13:08:35;1.17;;;0.70;;
4144;SDS011;2086;51.050;6.982;2022-07-06T13:11:00;0.50;;;0.40;;
4144;SDS011;2086;51.050;6.982;2022-07-06T13:13:26;0.50;;;0.40;;
4144;SDS011;2086;51.050;6.982;2022-07-06T13:15:51;0.50;;;0.50;;
4144;SDS011;2086;51.050;6.982;2022-07-06T13:18:16;0.70;;;0.50;;
4144;SDS011;2086;51.050;6.982;2022-07-06T13:20:44;3.70;;;0.50;;
4144;SDS011;2086;51.050;6.982;2022-07-06T13:23:09;0.50;;;0.50;;
4144;SDS011;2086;51.050;6.982;2022-07-06T13:25:35;2.00;;;0.40;;
4144;SDS011;2086;51.050;6.982;2022-07-06T13:28:00;2.83;;;0.40;;
4144;SDS011;2086;51.050;6.982;2022-07-06T13:30:25;0.50;;;0.50;;
4144;SDS011;2086;51.050;6.982;2022-07-06T13:32:50;0.53;;;0.40;;
4144;SDS011;2086;51.050;6.982;2022-07-06T13:35:16;0.50;;;0.50;;
4144;SDS011;2086;51.050;6.982;2022-07-06T13:37:43;2.20;;;0.50;;
4144;SDS011;2086;51.050;6.982;2022-07-06T13:40:08;0.53;;;0.50;;
4144;SDS011;2086;51.050;6.982;2022-07-06T13:42:34;0.50;;;0.50;;
4144;SDS011;2086;51.050;6.982;2022-07-06T13:44:59;1.03;;;0.73;;
4144;SDS011;2086;51.050;6.982;2022-07-06T13:47:24;0.70;;;0.70;;
4144;SDS011;2086;51.050;6.982;2022-07-06T13:49:49;1.07;;;0.50;;
4144;SDS011;2086;51.050;6.982;2022-07-06T13:52:15;0.50;;;0.43;;
4144;SDS011;2086;51.050;6.982;2022-07-06T13:54:40;0.50;;;0.47;;
4144;SDS011;2086;51.050;6.982;2022-07-06T13:57:05;0.60;;;0.50;;
4144;SDS011;2086;51.050;6.982;2022-07-06T13:59:31;0.50;;;0.40;;
4144;SDS011;2086;51.050;6.982;2022-07-06T14:01:57;0.50;;;0.50;;
4144;SDS011;2086;51.050;6.982;2022-07-06T14:04:22;0.50;;;0.40;;
4144;SDS011;2086;51.050;6.982;2022-07-06T14:06:48;0.60;;;0.50;;
4144;SDS011;2086;51.050;6.982;2022-07-06T14:09:13;0.50;;;0.40;;
4144;SDS011;2086;51.050;6.982;2022-07-06T14:11:38;0.50;;;0.40;;
4144;SDS011;2086;51.050;6.982;2022-07-06T14:14:04;2.10;;;0.60;;
4144;SDS011;2086;51.050;6.982;2022-07-06T14:16:32;1.37;;;0.70;;
4144;SDS011;2086;51.050;6.982;2022-07-06T14:18:59;0.50;;;0.40;;
4144;SDS011;2086;51.050;6.982;2022-07-06T14:21:24;0.50;;;0.50;;
4144;SDS011;2086;51.050;6.982;2022-07-06T14:23:49;1.13;;;0.50;;
4144;SDS011;2086;51.050;6.982;2022-07-06T14:26:15;2.73;;;0.50;;
4144;SDS011;2086;51.050;6.982;2022-07-06T14:28:40;0.90;;;0.57;;
4144;SDS011;2086;51.050;6.982;2022-07-06T14:31:05;0.87;;;0.40;;
4144;SDS011;2086;51.050;6.982;2022-07-06T14:33:30;0.60;;;0.50;;
4144;SDS011;2086;51.050;6.982;2022-07-06T14:35:56;4.13;;;0.73;;
4144;SDS011;2086;51.050;6.982;2022-07-06T14:38:21;3.10;;;0.50;;
4144;SDS011;2086;51.050;6.982;2022-07-06T14:40:47;0.50;;;0.40;;
4144;SDS011;2086;51.050;6.982;2022-07-06T14:43:13;0.70;;;0.70;;
4144;SDS011;2086;51.050;6.982;2022-07-06T14:45:39;1.10;;;0.50;;
4144;SDS011;2086;51.050;6.982;2022-07-06T14:48:04;0.50;;;0.40;;
4144;SDS011;2086;51.050;6.982;2022-07-06T14:50:30;0.70;;;0.40;;
4144;SDS011;2086;51.050;6.982;2022-07-06T14:52:55;1.27;;;0.50;;
4144;SDS011;2086;51.050;6.982;2022-07-06T14:55:21;4.43;;;0.50;;
4144;SDS011;2086;51.050;6.982;2022-07-06T14:57:47;0.60;;;0.50;;
4144;SDS011;2086;51.050;6.982;2022-07-06T15:00:12;0.50;;;0.40;;
4144;SDS011;2086;51.050;6.982;2022-07-06T15:02:38;0.60;;;0.40;;
4144;SDS011;2086;51.050;6.982;2022-07-06T15:05:03;0.50;;;0.40;;
4144;SDS011;2086;51.050;6.982;2022-07-06T15:07:28;0.60;;;0.47;;
4144;SDS011;2086;51.050;6.982;2022-07-06T15:09:54;0.50;;;0.40;;
4144;SDS011;2086;51.050;6.982;2022-07-06T15:12:20;0.70;;;0.60;;
4144;SDS011;2086;51.050;6.982;2022-07-06T15:14:45;0.60;;;0.60;;
4144;SDS011;2086;51.050;6.982;2022-07-06T15:17:10;0.57;;;0.40;;
4144;SDS011;2086;51.050;6.982;2022-07-06T15:19:35;0.73;;;0.40;;
4144;SDS011;2086;51.050;6.982;2022-07-06T15:22:01;0.57;;;0.50;;